Terminal Aerodrome Forecast
Issued by NWS Paducah, KY

Home | Current Version | Previous Version | Text Only | Print | Product List | Glossary On
Versions: 1 2 3 4 5 6 7 8 9 10 11 12 13 14 15
634
FTUS43 KPAH 302109 AAA
TAFEVV
TAF AMD
KEVV 302109Z 3021/0118 27014G22KT P6SM SCT040
     FM302300 25006KT P6SM BKN025
     FM010700 25005KT P6SM SKC=

USA.gov is the U.S. government's official web portal to all federal, state and local government web resources and services.